Time;durP1;ratioP1;P1;durP2;ratioP2;P2;SDS_P1;SDS_P2;PMS_P1;PMS_P2;Temp;Humidity;BMP_temperature;BMP_pressure;BME280_temperature;BME280_humidity;BME280_pressure;Samples;Min_cycle;Max_cycle;Signal;HPM_P1;HPM_P2
2022/05/30 00:02:04;;;;;;;17.75;6.22;;;;;;;;;;4912411;29;20051;-65
2022/05/30 00:04:30;;;;;;;22.92;7.03;;;;;;;;;;4912312;29;20499;-66
2022/05/30 00:06:56;;;;;;;19.48;6.72;;;;;;;;;;4913849;29;20059;-66
2022/05/30 00:09:22;;;;;;;15.75;6.13;;;;;;;;;;4912640;29;20024;-65
2022/05/30 00:11:50;;;;;;;18.65;6.63;;;;;;;;;;4914332;29;20020;-66
2022/05/30 00:14:16;;;;;;;15.60;6.40;;;;;;;;;;4914099;29;20542;-65
2022/05/30 00:16:41;;;;;;;18.55;6.43;;;;;;;;;;4915780;29;20024;-65
2022/05/30 00:19:07;;;;;;;20.33;6.50;;;;;;;;;;4914793;29;20043;-65
2022/05/30 00:21:33;;;;;;;18.60;6.10;;;;;;;;;;4915435;29;20115;-66
2022/05/30 00:23:59;;;;;;;15.85;6.78;;;;;;;;;;4915215;29;20024;-66
2022/05/30 00:26:25;;;;;;;16.63;6.60;;;;;;;;;;4913490;29;20082;-66
2022/05/30 00:28:51;;;;;;;15.70;6.00;;;;;;;;;;4914614;29;20038;-66
2022/05/30 00:31:18;;;;;;;15.45;6.65;;;;;;;;;;4914701;29;20086;-66
2022/05/30 00:33:44;;;;;;;18.98;6.63;;;;;;;;;;4938382;23;20032;-62
2022/05/30 00:36:11;;;;;;;18.95;6.82;;;;;;;;;;4951605;28;20039;-61
2022/05/30 00:38:38;;;;;;;18.10;8.35;;;;;;;;;;4951077;29;20031;-61
2022/05/30 00:41:04;;;;;;;18.25;6.75;;;;;;;;;;4951924;29;20070;-61
2022/05/30 00:43:30;;;;;;;19.70;7.05;;;;;;;;;;4951534;29;20066;-61
2022/05/30 00:45:57;;;;;;;19.23;6.68;;;;;;;;;;4951928;28;20061;-61
2022/05/30 00:48:26;;;;;;;17.05;6.63;;;;;;;;;;5017198;28;20403;-62
2022/05/30 00:50:53;;;;;;;18.15;6.82;;;;;;;;;;4951471;29;20118;-62
2022/05/30 00:53:19;;;;;;;17.88;7.15;;;;;;;;;;4951310;28;20020;-63
2022/05/30 00:55:46;;;;;;;19.27;7.43;;;;;;;;;;4951052;28;20024;-62
2022/05/30 00:58:13;;;;;;;18.23;7.50;;;;;;;;;;4951001;28;20080;-62
2022/05/30 01:00:39;;;;;;;18.85;6.72;;;;;;;;;;4951045;28;20027;-63
2022/05/30 01:08:35;;;;;;;14.50;6.60;;;;;;;;;;4950872;29;20103;-62
2022/05/30 01:11:01;;;;;;;17.40;7.32;;;;;;;;;;4950379;29;20035;-62
2022/05/30 01:13:27;;;;;;;19.77;7.22;;;;;;;;;;4950802;29;20391;-62
2022/05/30 01:15:54;;;;;;;17.42;7.20;;;;;;;;;;5017012;28;20032;-62
2022/05/30 01:18:23;;;;;;;18.08;7.45;;;;;;;;;;5016542;28;20038;-62
2022/05/30 01:20:50;;;;;;;23.00;7.10;;;;;;;;;;5017011;28;20023;-62
2022/05/30 01:23:34;;;;;;;18.15;7.00;;;;;;;;;;4950770;29;20039;-62
2022/05/30 01:26:09;;;;;;;18.35;7.00;;;;;;;;;;5016751;28;20031;-62
2022/05/30 01:28:46;;;;;;;19.90;8.00;;;;;;;;;;4950630;29;20031;-61
2022/05/30 01:31:12;;;;;;;17.58;6.72;;;;;;;;;;5016684;28;20027;-62
2022/05/30 01:33:38;;;;;;;20.88;8.75;;;;;;;;;;4950596;28;20023;-62
2022/05/30 01:36:04;;;;;;;16.17;6.93;;;;;;;;;;5016601;28;20033;-62
2022/05/30 01:38:30;;;;;;;17.13;7.15;;;;;;;;;;5016339;28;20027;-62
2022/05/30 01:40:57;;;;;;;21.40;7.47;;;;;;;;;;4950288;29;20541;-62
2022/05/30 01:43:23;;;;;;;18.70;7.40;;;;;;;;;;4950453;28;20616;-62
2022/05/30 01:45:49;;;;;;;23.05;7.75;;;;;;;;;;4950636;29;20081;-62
2022/05/30 01:48:15;;;;;;;19.73;7.68;;;;;;;;;;4950186;29;20037;-63
2022/05/30 01:50:41;;;;;;;18.92;6.95;;;;;;;;;;4950373;28;20106;-62
2022/05/30 01:53:07;;;;;;;18.52;7.30;;;;;;;;;;4950629;29;20031;-62
2022/05/30 01:55:33;;;;;;;17.30;7.25;;;;;;;;;;4950528;28;20031;-62
2022/05/30 01:57:59;;;;;;;18.02;7.20;;;;;;;;;;4950047;29;20482;-62
2022/05/30 02:00:25;;;;;;;17.25;7.60;;;;;;;;;;5016083;28;20043;-62
2022/05/30 02:02:51;;;;;;;17.88;6.70;;;;;;;;;;4950246;29;20670;-62
2022/05/30 02:05:18;;;;;;;19.63;7.00;;;;;;;;;;4950002;28;20042;-62
2022/05/30 02:07:44;;;;;;;18.40;6.70;;;;;;;;;;4950068;29;20030;-62
2022/05/30 02:10:10;;;;;;;24.77;8.10;;;;;;;;;;4950248;29;20019;-62
2022/05/30 02:12:36;;;;;;;16.38;7.57;;;;;;;;;;4950374;29;20031;-62
2022/05/30 02:15:02;;;;;;;18.38;7.68;;;;;;;;;;4949972;29;20054;-63
2022/05/30 02:17:27;;;;;;;20.92;9.25;;;;;;;;;;5015851;28;20024;-62
2022/05/30 02:19:54;;;;;;;21.20;8.35;;;;;;;;;;4950247;29;20097;-62
2022/05/30 02:22:22;;;;;;;18.38;7.40;;;;;;;;;;4949907;29;20020;-62
2022/05/30 02:24:48;;;;;;;17.20;7.38;;;;;;;;;;4950108;28;20463;-63
2022/05/30 02:27:15;;;;;;;22.00;8.15;;;;;;;;;;4949773;29;20494;-62
2022/05/30 02:29:41;;;;;;;19.23;7.60;;;;;;;;;;4950112;29;20438;-63
2022/05/30 02:32:08;;;;;;;19.98;7.05;;;;;;;;;;5015926;28;20023;-63
2022/05/30 02:37:18;;;;;;;21.25;7.70;;;;;;;;;;4949546;29;20035;-64
2022/05/30 02:39:44;;;;;;;18.02;7.85;;;;;;;;;;5015758;28;20032;-63
2022/05/30 02:42:10;;;;;;;16.33;7.53;;;;;;;;;;5015699;28;20069;-63
2022/05/30 02:44:37;;;;;;;19.13;7.60;;;;;;;;;;5015491;28;20172;-63
2022/05/30 02:47:04;;;;;;;19.15;8.48;;;;;;;;;;4949686;29;20065;-63
2022/05/30 02:49:30;;;;;;;17.30;7.13;;;;;;;;;;4949671;29;20393;-63
2022/05/30 02:51:56;;;;;;;16.13;7.47;;;;;;;;;;4949793;29;20074;-63
2022/05/30 02:54:22;;;;;;;18.63;8.20;;;;;;;;;;5015764;28;20085;-63
2022/05/30 02:56:49;;;;;;;19.67;8.02;;;;;;;;;;4949479;29;20400;-63
2022/05/30 02:59:16;;;;;;;17.60;8.07;;;;;;;;;;4949313;29;20035;-63
2022/05/30 03:01:42;;;;;;;21.17;7.57;;;;;;;;;;4949765;29;20563;-63
2022/05/30 03:04:08;;;;;;;21.35;7.97;;;;;;;;;;4949757;29;20024;-63
2022/05/30 03:06:35;;;;;;;17.88;7.40;;;;;;;;;;4949284;29;20466;-63
2022/05/30 03:09:01;;;;;;;20.42;7.88;;;;;;;;;;4949015;29;20070;-63
2022/05/30 03:11:27;;;;;;;20.00;7.88;;;;;;;;;;4949381;29;20035;-63
2022/05/30 03:13:53;;;;;;;19.05;7.90;;;;;;;;;;4949235;29;20081;-63
2022/05/30 03:16:19;;;;;;;18.95;8.30;;;;;;;;;;4949045;29;20077;-65
2022/05/30 03:18:45;;;;;;;19.05;7.53;;;;;;;;;;4949010;28;20031;-61
2022/05/30 03:21:12;;;;;;;21.42;7.93;;;;;;;;;;4949353;28;20051;-63
2022/05/30 03:23:38;;;;;;;19.45;8.50;;;;;;;;;;5015447;28;20506;-63
2022/05/30 03:26:04;;;;;;;25.13;9.38;;;;;;;;;;4949547;28;20031;-63
2022/05/30 03:28:31;;;;;;;18.63;8.00;;;;;;;;;;4951082;29;20028;-63
2022/05/30 03:30:57;;;;;;;16.58;7.93;;;;;;;;;;4952330;28;20438;-65
2022/05/30 03:33:23;;;;;;;17.50;8.07;;;;;;;;;;4952522;28;20027;-63
2022/05/30 03:35:49;;;;;;;20.38;8.25;;;;;;;;;;4952230;29;20075;-63
2022/05/30 03:38:15;;;;;;;22.15;8.05;;;;;;;;;;4952360;29;20055;-63
2022/05/30 03:40:41;;;;;;;18.33;7.88;;;;;;;;;;4952741;29;20124;-64
2022/05/30 03:43:09;;;;;;;17.83;7.85;;;;;;;;;;4952479;28;20039;-63
2022/05/30 03:45:38;;;;;;;18.23;7.80;;;;;;;;;;4952376;28;20471;-62
2022/05/30 03:48:04;;;;;;;22.55;7.80;;;;;;;;;;4951720;29;20038;-63
2022/05/30 03:50:31;;;;;;;19.42;7.93;;;;;;;;;;4952163;29;20051;-63
2022/05/30 03:53:04;;;;;;;20.23;7.95;;;;;;;;;;4952137;29;20027;-62
2022/05/30 03:55:31;;;;;;;17.85;8.20;;;;;;;;;;4951755;29;20023;-63
2022/05/30 03:57:57;;;;;;;16.83;7.38;;;;;;;;;;4951660;28;20089;-63
2022/05/30 04:00:23;;;;;;;19.25;7.93;;;;;;;;;;4952151;29;20039;-62
2022/05/30 04:02:50;;;;;;;21.42;7.40;;;;;;;;;;4951772;28;20050;-63
2022/05/30 04:05:17;;;;;;;19.20;7.70;;;;;;;;;;4951925;28;20496;-62
2022/05/30 04:07:43;;;;;;;17.35;7.88;;;;;;;;;;5017627;28;20099;-63
2022/05/30 04:10:09;;;;;;;19.58;7.75;;;;;;;;;;4951635;28;20115;-63
2022/05/30 04:12:36;;;;;;;28.98;10.05;;;;;;;;;;4951764;29;20030;-64
2022/05/30 04:15:02;;;;;;;21.35;8.73;;;;;;;;;;4952150;29;20031;-63
2022/05/30 04:17:28;;;;;;;18.45;8.18;;;;;;;;;;5017604;28;20027;-63
2022/05/30 04:19:55;;;;;;;18.83;8.95;;;;;;;;;;4951638;28;20027;-63
2022/05/30 04:22:21;;;;;;;16.80;7.47;;;;;;;;;;4951853;29;20034;-63
2022/05/30 04:24:47;;;;;;;16.52;7.50;;;;;;;;;;5017812;28;20027;-62
2022/05/30 04:27:13;;;;;;;20.13;7.93;;;;;;;;;;4951240;29;20458;-62
2022/05/30 04:29:39;;;;;;;23.65;9.70;;;;;;;;;;4951405;29;20034;-63
2022/05/30 04:32:06;;;;;;;21.33;9.80;;;;;;;;;;4951535;29;20080;-62
2022/05/30 04:34:32;;;;;;;16.08;8.10;;;;;;;;;;4951549;28;20039;-62
2022/05/30 04:36:58;;;;;;;16.38;8.32;;;;;;;;;;4951548;29;20050;-60
2022/05/30 04:39:24;;;;;;;19.52;8.50;;;;;;;;;;4950985;28;20031;-63
2022/05/30 04:41:51;;;;;;;19.83;8.40;;;;;;;;;;4951753;29;20388;-62
2022/05/30 04:44:17;;;;;;;20.65;8.80;;;;;;;;;;4951270;29;20480;-63
2022/05/30 04:46:42;;;;;;;16.15;8.40;;;;;;;;;;5017503;28;20031;-63
2022/05/30 04:49:08;;;;;;;17.70;8.05;;;;;;;;;;5017124;28;20364;-62
2022/05/30 04:51:34;;;;;;;21.02;9.55;;;;;;;;;;4951348;29;20027;-64
2022/05/30 04:54:00;;;;;;;20.27;8.50;;;;;;;;;;4951027;29;20111;-64
2022/05/30 04:56:26;;;;;;;21.92;8.52;;;;;;;;;;4951238;29;20098;-63
2022/05/30 04:58:52;;;;;;;18.30;8.27;;;;;;;;;;4950940;29;20523;-62
2022/05/30 05:01:18;;;;;;;20.27;8.07;;;;;;;;;;4951296;28;20024;-62
2022/05/30 05:03:45;;;;;;;19.40;8.63;;;;;;;;;;4950909;29;20031;-63
2022/05/30 05:06:11;;;;;;;20.25;9.25;;;;;;;;;;5017081;28;20031;-62
2022/05/30 05:08:37;;;;;;;18.15;8.35;;;;;;;;;;4950500;29;20037;-63
2022/05/30 05:11:12;;;;;;;18.40;8.38;;;;;;;;;;5015305;28;20035;-63
2022/05/30 05:13:38;;;;;;;18.15;9.77;;;;;;;;;;4951011;29;20398;-62
2022/05/30 05:16:04;;;;;;;20.05;8.63;;;;;;;;;;5016794;28;20395;-63
2022/05/30 05:18:30;;;;;;;17.17;8.50;;;;;;;;;;4950126;28;20479;-63
2022/05/30 05:20:56;;;;;;;19.33;8.48;;;;;;;;;;4950326;29;20023;-63
2022/05/30 05:23:22;;;;;;;19.55;8.23;;;;;;;;;;4950599;28;20375;-63
2022/05/30 05:25:48;;;;;;;17.00;8.50;;;;;;;;;;4950389;28;20039;-63
2022/05/30 05:28:14;;;;;;;17.52;8.57;;;;;;;;;;4949958;28;20038;-62
2022/05/30 05:30:41;;;;;;;20.88;8.50;;;;;;;;;;4950406;28;20064;-63
2022/05/30 05:33:07;;;;;;;22.67;9.45;;;;;;;;;;4950195;29;20027;-63
2022/05/30 05:35:33;;;;;;;18.35;9.02;;;;;;;;;;4950151;29;20145;-63
2022/05/30 05:38:00;;;;;;;15.57;8.15;;;;;;;;;;4949823;28;20095;-63
2022/05/30 05:40:28;;;;;;;19.50;7.82;;;;;;;;;;4949701;29;20483;-63
2022/05/30 05:42:54;;;;;;;15.70;7.47;;;;;;;;;;4950272;28;20406;-62
2022/05/30 05:45:20;;;;;;;21.10;8.20;;;;;;;;;;4949444;29;20032;-63
2022/05/30 05:47:47;;;;;;;19.15;8.48;;;;;;;;;;4949358;29;20063;-63
2022/05/30 05:50:13;;;;;;;17.83;7.70;;;;;;;;;;4949413;29;20103;-61
2022/05/30 05:52:39;;;;;;;19.33;8.07;;;;;;;;;;4949755;28;20027;-63
2022/05/30 05:55:05;;;;;;;19.77;8.70;;;;;;;;;;4950012;29;20073;-64
2022/05/30 05:57:31;;;;;;;17.98;8.35;;;;;;;;;;4949420;29;20027;-63
2022/05/30 05:59:57;;;;;;;17.23;8.13;;;;;;;;;;5015318;28;20022;-63
2022/05/30 06:02:23;;;;;;;18.60;8.52;;;;;;;;;;4949743;29;20023;-64
2022/05/30 06:04:53;;;;;;;16.40;7.78;;;;;;;;;;4949706;29;20069;-63
2022/05/30 06:07:19;;;;;;;15.32;7.32;;;;;;;;;;4949754;29;20024;-63
2022/05/30 06:09:45;;;;;;;17.63;7.65;;;;;;;;;;4949703;29;20114;-63
2022/05/30 06:12:11;;;;;;;15.30;7.22;;;;;;;;;;4949825;29;20134;-64
2022/05/30 06:14:37;;;;;;;14.18;6.95;;;;;;;;;;4949751;29;20023;-63
2022/05/30 06:17:04;;;;;;;14.77;7.10;;;;;;;;;;4949507;29;20122;-64
2022/05/30 06:19:30;;;;;;;16.60;7.40;;;;;;;;;;4949287;29;20502;-63
2022/05/30 06:21:56;;;;;;;15.32;6.93;;;;;;;;;;5015157;28;20036;-63
2022/05/30 06:24:22;;;;;;;17.23;7.65;;;;;;;;;;4949131;29;20031;-63
2022/05/30 06:26:48;;;;;;;15.60;7.30;;;;;;;;;;4949496;29;20313;-63
2022/05/30 06:29:14;;;;;;;16.35;7.75;;;;;;;;;;4948781;29;20034;-62
2022/05/30 06:31:41;;;;;;;15.85;7.75;;;;;;;;;;5008443;28;20042;-63
2022/05/30 06:34:07;;;;;;;18.77;8.02;;;;;;;;;;4967686;23;20019;-64
2022/05/30 06:36:34;;;;;;;15.88;7.43;;;;;;;;;;4950858;29;20457;-64
2022/05/30 06:39:00;;;;;;;17.60;8.10;;;;;;;;;;4932251;28;20031;-65
2022/05/30 06:41:27;;;;;;;19.85;8.02;;;;;;;;;;4950917;28;20422;-65
2022/05/30 06:43:58;;;;;;;15.95;8.10;;;;;;;;;;4950377;28;20660;-64
2022/05/30 06:46:24;;;;;;;18.45;8.23;;;;;;;;;;4931315;29;20411;-64
2022/05/30 06:48:55;;;;;;;16.00;8.30;;;;;;;;;;4931006;29;20037;-64
2022/05/30 06:51:22;;;;;;;17.05;7.88;;;;;;;;;;4914635;29;20082;-65
2022/05/30 06:53:48;;;;;;;16.88;7.88;;;;;;;;;;4931570;29;20038;-64
2022/05/30 06:56:18;;;;;;;18.25;8.40;;;;;;;;;;4931602;29;20028;-64
2022/05/30 06:58:45;;;;;;;15.25;7.85;;;;;;;;;;4931681;29;20036;-66
2022/05/30 07:01:11;;;;;;;17.13;7.78;;;;;;;;;;4914124;29;20039;-65
2022/05/30 07:03:37;;;;;;;17.10;8.02;;;;;;;;;;4931369;29;20031;-66
2022/05/30 07:06:07;;;;;;;16.67;8.32;;;;;;;;;;4915931;28;20396;-66
2022/05/30 07:08:33;;;;;;;16.30;7.82;;;;;;;;;;4898819;29;20515;-66
2022/05/30 07:11:01;;;;;;;18.02;7.75;;;;;;;;;;4898177;29;20028;-65
2022/05/30 07:13:27;;;;;;;16.55;7.50;;;;;;;;;;4916296;28;20103;-65
2022/05/30 07:15:53;;;;;;;14.48;7.40;;;;;;;;;;4898697;29;20031;-64
2022/05/30 07:18:19;;;;;;;16.90;8.10;;;;;;;;;;4898385;28;20032;-64
2022/05/30 07:20:45;;;;;;;15.77;7.57;;;;;;;;;;4915622;28;20032;-65
2022/05/30 07:23:13;;;;;;;18.13;8.68;;;;;;;;;;4915617;28;20453;-65
2022/05/30 07:25:39;;;;;;;14.55;7.45;;;;;;;;;;4915513;28;20051;-65
2022/05/30 07:28:06;;;;;;;19.08;7.60;;;;;;;;;;4915424;28;20036;-65
2022/05/30 07:30:34;;;;;;;22.67;10.05;;;;;;;;;;4899464;28;20047;-65
2022/05/30 07:33:00;;;;;;;17.00;7.85;;;;;;;;;;4934651;29;20081;-65
2022/05/30 07:35:26;;;;;;;14.93;7.88;;;;;;;;;;4917050;29;20045;-65
2022/05/30 07:37:52;;;;;;;17.67;7.60;;;;;;;;;;4934250;29;20032;-65
2022/05/30 07:40:19;;;;;;;17.20;8.10;;;;;;;;;;4934321;29;20401;-63
2022/05/30 07:42:45;;;;;;;14.55;7.63;;;;;;;;;;4917107;29;20100;-65
2022/05/30 07:45:11;;;;;;;15.30;7.50;;;;;;;;;;4934022;29;20024;-64
2022/05/30 07:47:38;;;;;;;16.85;7.95;;;;;;;;;;4933741;29;20036;-64
2022/05/30 07:50:05;;;;;;;16.73;8.00;;;;;;;;;;4917414;29;20459;-64
2022/05/30 07:52:31;;;;;;;15.63;7.38;;;;;;;;;;4934165;29;20074;-65
2022/05/30 07:54:57;;;;;;;15.32;7.50;;;;;;;;;;4934307;29;20051;-64
2022/05/30 08:00:09;;;;;;;14.77;7.80;;;;;;;;;;4934058;29;20407;-64
2022/05/30 08:02:35;;;;;;;16.35;7.90;;;;;;;;;;4933794;29;20042;-65
2022/05/30 08:05:01;;;;;;;15.23;7.63;;;;;;;;;;4933478;29;20099;-64
2022/05/30 08:07:28;;;;;;;16.58;7.97;;;;;;;;;;4933691;28;20062;-64
2022/05/30 08:09:54;;;;;;;17.40;8.23;;;;;;;;;;4933796;28;20565;-64
2022/05/30 08:12:20;;;;;;;15.55;8.60;;;;;;;;;;4934130;29;20035;-64
2022/05/30 08:14:46;;;;;;;15.65;8.48;;;;;;;;;;4922549;29;20459;-65
2022/05/30 08:17:12;;;;;;;15.32;8.60;;;;;;;;;;4922456;29;20051;-65
2022/05/30 08:19:40;;;;;;;17.00;9.18;;;;;;;;;;4925733;29;20051;-64
2022/05/30 08:22:08;;;;;;;14.70;7.70;;;;;;;;;;4928150;28;20491;-67
2022/05/30 08:24:37;;;;;;;14.55;8.05;;;;;;;;;;4933715;29;20028;-65
2022/05/30 08:27:04;;;;;;;16.08;8.80;;;;;;;;;;4916186;29;20036;-62
2022/05/30 08:29:30;;;;;;;16.73;8.20;;;;;;;;;;4933223;29;20392;-65
2022/05/30 08:31:56;;;;;;;15.38;7.90;;;;;;;;;;4934201;29;20023;-65
2022/05/30 08:34:22;;;;;;;14.60;8.00;;;;;;;;;;4935043;28;20120;-65
2022/05/30 08:36:48;;;;;;;16.45;7.90;;;;;;;;;;4935368;28;20094;-64
2022/05/30 08:42:00;;;;;;;13.52;7.50;;;;;;;;;;4952581;29;20096;-65
2022/05/30 08:44:29;;;;;;;13.80;7.43;;;;;;;;;;4952614;28;20034;-65
2022/05/30 08:46:57;;;;;;;;;;;;;;;;;;4953013;29;20073;-66
2022/05/30 08:49:32;;;;;;;13.43;7.43;;;;;;;;;;5034912;28;19916;-63
2022/05/30 08:51:58;;;;;;;14.70;7.68;;;;;;;;;;4952545;29;20110;-64
2022/05/30 08:54:43;;;;;;;15.93;7.70;;;;;;;;;;4952772;28;20059;-61
2022/05/30 08:57:21;;;;;;;14.85;8.20;;;;;;;;;;4952535;29;20411;-64
2022/05/30 08:59:47;;;;;;;15.35;8.23;;;;;;;;;;4952628;29;20028;-62
2022/05/30 09:02:13;;;;;;;17.08;8.20;;;;;;;;;;4953018;29;20081;-65
2022/05/30 09:04:58;;;;;;;16.23;8.30;;;;;;;;;;4952118;28;20031;-65
2022/05/30 09:07:28;;;;;;;15.40;8.02;;;;;;;;;;4951951;29;20089;-64
2022/05/30 09:09:57;;;;;;;15.40;8.10;;;;;;;;;;4952227;29;20035;-62
2022/05/30 09:12:27;;;;;;;14.90;8.02;;;;;;;;;;4951835;29;20023;-62
2022/05/30 09:14:56;;;;;;;22.60;11.48;;;;;;;;;;4951999;28;20027;-54
2022/05/30 09:17:21;;;;;;;;;;;;;;;;;;4951708;29;20099;-58
2022/05/30 09:19:48;;;;;;;18.55;9.13;;;;;;;;;;4951440;28;20416;-58
2022/05/30 09:22:15;;;;;;;15.10;8.20;;;;;;;;;;4951825;29;20027;-57
2022/05/30 09:25:55;;;;;;;16.67;8.50;;;;;;;;;;4951209;28;20396;-56
2022/05/30 09:27:28;;;;;;;16.50;8.93;;;;;;;;;;4951180;28;20039;-60
2022/05/30 09:29:57;;;;;;;15.10;8.30;;;;;;;;;;4951484;29;20303;-54
2022/05/30 09:32:29;;;;;;;18.40;8.88;;;;;;;;;;4947083;29;20074;-59
2022/05/30 09:34:55;;;;;;;18.05;9.40;;;;;;;;;;4932226;29;20035;-60
2022/05/30 09:37:31;;;;;;;16.27;8.80;;;;;;;;;;4929400;29;20025;-56
2022/05/30 09:39:57;;;;;;;15.93;9.43;;;;;;;;;;4923375;28;20024;-57
2022/05/30 09:42:34;;;;;;;15.65;9.00;;;;;;;;;;4923024;29;20549;-57
2022/05/30 09:45:20;;;;;;;16.10;8.70;;;;;;;;;;4928969;28;20031;-59
2022/05/30 09:48:03;;;;;;;15.52;9.73;;;;;;;;;;4915509;29;20039;-55
2022/05/30 09:50:30;;;;;;;16.75;9.13;;;;;;;;;;4925312;29;20062;-59
2022/05/30 09:52:56;;;;;;;16.27;9.43;;;;;;;;;;4925691;29;20387;-57
2022/05/30 09:55:27;;;;;;;17.77;9.50;;;;;;;;;;4925878;29;20042;-54
2022/05/30 09:57:53;;;;;;;15.40;9.20;;;;;;;;;;4919558;29;20032;-56
2022/05/30 10:00:20;;;;;;;16.83;9.05;;;;;;;;;;4920821;28;20106;-56
2022/05/30 10:02:46;;;;;;;15.85;8.70;;;;;;;;;;4925398;29;20028;-58
2022/05/30 10:05:21;;;;;;;16.17;9.15;;;;;;;;;;4925279;29;20115;-57
2022/05/30 10:07:51;;;;;;;15.70;8.57;;;;;;;;;;4922800;28;20381;-57
2022/05/30 10:10:20;;;;;;;14.50;8.50;;;;;;;;;;4912892;29;20494;-56
2022/05/30 10:13:06;;;;;;;15.15;8.38;;;;;;;;;;4912510;28;20118;-58
2022/05/30 10:15:34;;;;;;;14.40;8.50;;;;;;;;;;4895759;28;20044;-55
2022/05/30 10:18:18;;;;;;;15.40;8.63;;;;;;;;;;4920793;29;20037;-57
2022/05/30 10:21:07;;;;;;;13.88;8.55;;;;;;;;;;4912766;28;20038;-58
2022/05/30 10:29:49;;;;;;;16.77;7.70;;;;;;;;;;4912453;29;20123;-54
2022/05/30 10:32:22;;;;;;;16.10;8.90;;;;;;;;;;4914895;29;20024;-58
2022/05/30 10:35:02;;;;;;;15.35;8.43;;;;;;;;;;4931296;29;20078;-58
2022/05/30 10:37:28;;;;;;;15.55;8.20;;;;;;;;;;4933058;29;20499;-62
2022/05/30 10:39:58;;;;;;;14.98;7.90;;;;;;;;;;4934812;29;20035;-63
2022/05/30 10:42:45;;;;;;;15.45;8.50;;;;;;;;;;4933150;29;20035;-62
2022/05/30 10:45:18;;;;;;;15.48;8.40;;;;;;;;;;4954078;28;20063;-65
2022/05/30 10:47:48;;;;;;;16.08;8.10;;;;;;;;;;4934416;29;20058;-64
2022/05/30 10:50:16;;;;;;;15.73;8.25;;;;;;;;;;4934501;29;20020;-65
2022/05/30 10:52:46;;;;;;;15.38;8.48;;;;;;;;;;4934647;29;20434;-65
2022/05/30 10:55:19;;;;;;;14.65;8.32;;;;;;;;;;4934307;28;20434;-64
2022/05/30 10:57:51;;;;;;;14.65;8.07;;;;;;;;;;4934667;29;20024;-64
2022/05/30 11:00:26;;;;;;;15.77;8.50;;;;;;;;;;4934650;29;20020;-64
2022/05/30 11:02:52;;;;;;;15.07;8.18;;;;;;;;;;4917575;29;20024;-64
2022/05/30 11:05:21;;;;;;;15.35;8.23;;;;;;;;;;4934083;29;20024;-65
2022/05/30 11:08:00;;;;;;;17.27;8.25;;;;;;;;;;4934282;29;20027;-63
2022/05/30 11:10:29;;;;;;;16.40;8.65;;;;;;;;;;4934104;29;20107;-63
2022/05/30 11:13:18;;;;;;;16.90;9.05;;;;;;;;;;4934240;29;20038;-65
2022/05/30 11:15:47;;;;;;;15.82;8.50;;;;;;;;;;4939183;28;20039;-64
2022/05/30 11:18:35;;;;;;;14.70;8.05;;;;;;;;;;4934466;29;20023;-64
2022/05/30 11:21:11;;;;;;;15.50;8.70;;;;;;;;;;4934063;29;20395;-64
2022/05/30 11:23:38;;;;;;;14.30;8.40;;;;;;;;;;4934347;29;20028;-64
2022/05/30 11:26:04;;;;;;;15.35;8.98;;;;;;;;;;4933931;29;20032;-63
2022/05/30 11:28:33;;;;;;;14.27;8.52;;;;;;;;;;4916839;29;20036;-64
2022/05/30 11:31:08;;;;;;;14.73;8.40;;;;;;;;;;4934002;29;20399;-64
2022/05/30 11:33:52;;;;;;;18.52;8.40;;;;;;;;;;4933915;29;20046;-63
2022/05/30 11:36:21;;;;;;;13.48;8.00;;;;;;;;;;4934032;29;20032;-65
2022/05/30 11:39:06;;;;;;;14.50;7.75;;;;;;;;;;4933771;29;20046;-65
2022/05/30 11:41:50;;;;;;;14.35;7.97;;;;;;;;;;4933902;29;20166;-65
2022/05/30 11:44:16;;;;;;;14.23;7.82;;;;;;;;;;4934009;29;20055;-65
2022/05/30 11:47:14;;;;;;;14.13;8.20;;;;;;;;;;4933976;29;20067;-59
2022/05/30 11:49:59;;;;;;;14.93;8.02;;;;;;;;;;4953924;28;20040;-63
2022/05/30 11:52:34;;;;;;;14.10;8.18;;;;;;;;;;4934053;29;20024;-62
2022/05/30 11:55:06;;;;;;;14.77;8.90;;;;;;;;;;4934911;29;20040;-62
2022/05/30 11:57:44;;;;;;;15.57;8.50;;;;;;;;;;4933847;29;20391;-62
2022/05/30 12:00:14;;;;;;;15.77;8.60;;;;;;;;;;4933924;29;20020;-60
2022/05/30 12:02:41;;;;;;;13.63;8.20;;;;;;;;;;4933242;29;20034;-62
2022/05/30 12:05:28;;;;;;;14.73;8.88;;;;;;;;;;4933441;29;20553;-62
2022/05/30 12:08:02;;;;;;;15.52;9.00;;;;;;;;;;4933167;29;20407;-62
2022/05/30 12:10:37;;;;;;;16.92;8.93;;;;;;;;;;4933438;29;20183;-62
2022/05/30 12:13:06;;;;;;;17.75;9.40;;;;;;;;;;4933209;29;20115;-62
2022/05/30 12:15:47;;;;;;;15.43;9.10;;;;;;;;;;4933184;29;20019;-61
2022/05/30 12:24:27;;;;;;;14.93;8.70;;;;;;;;;;4933061;29;20135;-60
2022/05/30 12:27:01;;;;;;;14.15;8.30;;;;;;;;;;4933144;29;20377;-60
2022/05/30 12:29:44;;;;;;;14.23;8.63;;;;;;;;;;4932827;29;20032;-60
2022/05/30 12:32:40;;;;;;;16.98;9.50;;;;;;;;;;4933161;29;20034;-58
2022/05/30 12:35:11;;;;;;;16.65;8.95;;;;;;;;;;4933886;29;20392;-60
2022/05/30 12:37:45;;;;;;;14.85;8.35;;;;;;;;;;4932438;29;20024;-59
2022/05/30 12:40:23;;;;;;;21.35;8.98;;;;;;;;;;4932877;29;20391;-60
2022/05/30 12:43:08;;;;;;;15.23;9.20;;;;;;;;;;4930739;29;20028;-60
2022/05/30 12:45:34;;;;;;;14.10;8.77;;;;;;;;;;4932120;29;20495;-61
2022/05/30 12:48:02;;;;;;;15.75;9.15;;;;;;;;;;4919421;29;20036;-63
2022/05/30 12:50:31;;;;;;;17.55;9.02;;;;;;;;;;4914004;28;20031;-62
2022/05/30 12:52:58;;;;;;;14.75;8.80;;;;;;;;;;4914859;28;20028;-62
2022/05/30 12:55:33;;;;;;;14.95;9.10;;;;;;;;;;4915012;28;20566;-63
2022/05/30 12:57:59;;;;;;;16.35;9.52;;;;;;;;;;4897793;28;20034;-63
2022/05/30 13:00:41;;;;;;;14.35;8.60;;;;;;;;;;4896652;28;20563;-63
2022/05/30 13:03:26;;;;;;;16.20;9.18;;;;;;;;;;4896549;28;20032;-63
2022/05/30 13:05:58;;;;;;;15.55;8.90;;;;;;;;;;4896309;29;20034;-61
2022/05/30 13:08:43;;;;;;;14.02;8.63;;;;;;;;;;4921190;29;20038;-61
2022/05/30 13:11:11;;;;;;;13.85;8.40;;;;;;;;;;4932206;29;20028;-63
2022/05/30 13:13:41;;;;;;;16.00;8.95;;;;;;;;;;4932755;28;20267;-59
2022/05/30 13:16:10;;;;;;;14.10;8.20;;;;;;;;;;4932807;28;20208;-61
2022/05/30 13:18:38;;;;;;;15.90;8.75;;;;;;;;;;4932068;29;20399;-61
2022/05/30 13:21:06;;;;;;;13.85;8.07;;;;;;;;;;4932188;29;20114;-63
2022/05/30 13:23:36;;;;;;;14.48;8.65;;;;;;;;;;4928116;28;20035;-61
2022/05/30 13:26:11;;;;;;;18.20;9.43;;;;;;;;;;4913000;29;20028;-61
2022/05/30 13:28:41;;;;;;;16.25;8.60;;;;;;;;;;4913183;29;20028;-61
2022/05/30 13:31:08;;;;;;;16.52;8.70;;;;;;;;;;4913172;29;20020;-61
2022/05/30 13:33:39;;;;;;;15.30;8.63;;;;;;;;;;4938266;28;20028;-62
2022/05/30 13:36:06;;;;;;;15.60;8.48;;;;;;;;;;4932075;29;20040;-60
2022/05/30 13:38:39;;;;;;;16.30;8.70;;;;;;;;;;4932077;29;20057;-59
2022/05/30 13:41:20;;;;;;;14.45;8.40;;;;;;;;;;4932214;29;20032;-61
2022/05/30 13:43:46;;;;;;;16.30;8.60;;;;;;;;;;4932056;29;20101;-62
2022/05/30 13:46:15;;;;;;;15.63;8.88;;;;;;;;;;4931393;29;20063;-61
2022/05/30 13:48:42;;;;;;;16.77;9.73;;;;;;;;;;4926227;29;20035;-63
2022/05/30 13:51:12;;;;;;;14.70;9.00;;;;;;;;;;4923025;28;20043;-63
2022/05/30 13:53:39;;;;;;;14.60;8.90;;;;;;;;;;4918907;28;20106;-64
2022/05/30 13:56:07;;;;;;;16.00;9.00;;;;;;;;;;4919170;28;20031;-64
2022/05/30 13:58:36;;;;;;;14.87;9.10;;;;;;;;;;4904076;28;20138;-64
2022/05/30 14:01:05;;;;;;;14.90;9.10;;;;;;;;;;4922639;29;20120;-62
2022/05/30 14:03:32;;;;;;;15.45;8.93;;;;;;;;;;4922470;29;20345;-63
2022/05/30 14:05:58;;;;;;;15.35;9.05;;;;;;;;;;4581565;28;10001255;-63
2022/05/30 14:08:30;;;;;;;14.82;8.98;;;;;;;;;;4926757;28;20114;-63
2022/05/30 14:10:59;;;;;;;14.13;8.57;;;;;;;;;;4927291;28;20138;-61
2022/05/30 14:13:59;;;;;;;15.80;9.00;;;;;;;;;;4920268;29;20020;-63
2022/05/30 14:16:45;;;;;;;14.00;8.80;;;;;;;;;;4895143;29;20528;-61
2022/05/30 14:19:12;;;;;;;14.40;8.88;;;;;;;;;;4893471;29;20046;-57
2022/05/30 14:21:40;;;;;;;15.32;9.10;;;;;;;;;;4908482;29;20111;-62
2022/05/30 14:24:17;;;;;;;14.60;8.32;;;;;;;;;;4909353;28;20016;-66
2022/05/30 14:26:43;;;;;;;14.38;8.43;;;;;;;;;;4907759;28;20073;-61
2022/05/30 14:29:22;;;;;;;13.90;8.60;;;;;;;;;;4926836;29;20050;-66
2022/05/30 14:32:00;;;;;;;14.30;8.90;;;;;;;;;;4927214;29;20039;-61
2022/05/30 14:34:33;;;;;;;14.20;9.18;;;;;;;;;;4918978;29;20036;-65
2022/05/30 14:36:59;;;;;;;14.82;8.80;;;;;;;;;;4918510;28;20032;-63
2022/05/30 14:39:26;;;;;;;14.70;8.80;;;;;;;;;;4920824;28;20107;-62
2022/05/30 14:42:00;;;;;;;14.05;8.45;;;;;;;;;;4921076;29;20024;-63
2022/05/30 14:44:33;;;;;;;14.98;8.50;;;;;;;;;;4921686;29;20027;-63
2022/05/30 14:46:59;;;;;;;16.13;9.45;;;;;;;;;;4926142;29;20035;-60
2022/05/30 14:49:27;;;;;;;15.77;9.50;;;;;;;;;;4923922;29;20039;-63
2022/05/30 14:51:54;;;;;;;14.65;8.50;;;;;;;;;;4911998;28;20090;-64
2022/05/30 14:54:29;;;;;;;14.85;8.50;;;;;;;;;;4911088;29;20036;-64
2022/05/30 14:56:55;;;;;;;13.98;8.20;;;;;;;;;;4909806;28;20457;-61
2022/05/30 14:59:31;;;;;;;15.02;8.50;;;;;;;;;;4909792;28;20020;-64
2022/05/30 15:01:57;;;;;;;14.50;8.00;;;;;;;;;;4924369;29;20458;-63
2022/05/30 15:04:23;;;;;;;16.23;8.43;;;;;;;;;;4932156;29;20035;-63
2022/05/30 15:06:55;;;;;;;15.63;8.23;;;;;;;;;;4929496;29;20043;-62
2022/05/30 15:09:23;;;;;;;14.27;8.75;;;;;;;;;;4928563;29;20055;-62